Ship Status Report: callsign BR3037

sailwx.info

Track history (hours):
 
Tides and Currents Weather Stations Pressure Air Temp Water Temp Dewpoint Dewpoint Depression Visibility Wind Speed Wind Dir Waves Ship Positions

Oceanographic research ship ()

Last reported at 2017-Apr-24 04:21 UTC. Time now 2017-Apr-27 07:13 UTC.
Position N 22°36' E 120°10'.

Length 39 m.

Type: Other ship. MMSI: 416926000.

Date/timePositionNaut miles runAvg speedWind from/ knotsBaromVisibWave heightAir tempDewpointWater temp
2017-Apr-24 04:21N 22°36' E 120°10'410.4
2017-Apr-24 04:00N 22°38' E 120°12'5 0.2
2017-Apr-23 05:22N 22°37' E 120°17'2 4.8
2017-Apr-23 05:00N 22°36' E 120°16'1 1.3
2017-Apr-23 04:31N 22°36' E 120°15'2 3.1
2017-Apr-23 03:49N 22°35' E 120°13'2 6.8
2017-Apr-23 03:29N 22°37' E 120°12'3 4.6
2017-Apr-23 02:54N 22°39' E 120°13'2 3.6
2017-Apr-23 02:25N 22°38' E 120°14'0 0.5
2017-Apr-23 01:58N 22°38' E 120°15'2 0.1
2017-Apr-22 05:36N 22°37' E 120°16'110.8
2017-Apr-22 05:30N 22°37' E 120°15'3 6.5
2017-Apr-22 05:00N 22°38' E 120°12'2 0.1
2017-Apr-21 02:52N 22°40' E 120°11'3 9.0
2017-Apr-21 02:30N 22°38' E 120°14'2 0.1
2017-Apr-19 10:04N 22°37' E 120°16'1 9.5
2017-Apr-19 10:00N 22°37' E 120°16'5 0.6
2017-Apr-19 01:54N 22°38' E 120°10'410.1
2017-Apr-19 01:30N 22°37' E 120°15'1 0.0
2017-Apr-17 09:32N 22°37' E 120°16'0 9.3
2017-Apr-17 09:29N 22°37' E 120°16'5 0.2
2017-Apr-16 08:13N 22°35' E 120°11'2 9.8
2017-Apr-16 07:59N 22°37' E 120°11'  
Track history (hours):
 
Tides and Currents Weather Stations Pressure Air Temp Water Temp Dewpoint Dewpoint Depression Visibility Wind Speed Wind Dir Waves Ship Positions

Oceanographic research ship ()

Last reported at 2017-Apr-24 04:21 UTC. Time now 2017-Apr-27 07:13 UTC.
Position N 22°36' E 120°10'.

Length 39 m.

Type: Other ship. MMSI: 416926000.

Date/timePositionNaut miles runAvg speedWind from/ knotsBaromVisibWave heightAir tempDewpointWater temp
2017-Apr-24 04:21N 22°36' E 120°10'410.4
2017-Apr-24 04:00N 22°38' E 120°12'5 0.2
2017-Apr-23 05:22N 22°37' E 120°17'2 4.8
2017-Apr-23 05:00N 22°36' E 120°16'1 1.3
2017-Apr-23 04:31N 22°36' E 120°15'2 3.1
2017-Apr-23 03:49N 22°35' E 120°13'2 6.8
2017-Apr-23 03:29N 22°37' E 120°12'3 4.6
2017-Apr-23 02:54N 22°39' E 120°13'2 3.6
2017-Apr-23 02:25N 22°38' E 120°14'0 0.5
2017-Apr-23 01:58N 22°38' E 120°15'2 0.1
2017-Apr-22 05:36N 22°37' E 120°16'110.8
2017-Apr-22 05:30N 22°37' E 120°15'3 6.5
2017-Apr-22 05:00N 22°38' E 120°12'2 0.1
2017-Apr-21 02:52N 22°40' E 120°11'3 9.0
2017-Apr-21 02:30N 22°38' E 120°14'2 0.1
2017-Apr-19 10:04N 22°37' E 120°16'1 9.5
2017-Apr-19 10:00N 22°37' E 120°16'5 0.6
2017-Apr-19 01:54N 22°38' E 120°10'410.1
2017-Apr-19 01:30N 22°37' E 120°15'1 0.0
2017-Apr-17 09:32N 22°37' E 120°16'0 9.3
2017-Apr-17 09:29N 22°37' E 120°16'5 0.2
2017-Apr-16 08:13N 22°35' E 120°11'2 9.8
2017-Apr-16 07:59N 22°37' E 120°11'  

Dump ship's entire track history